Time;durP1;ratioP1;P1;durP2;ratioP2;P2;SDS_P1;SDS_P2;PMS_P1;PMS_P2;Temp;Humidity;BMP_temperature;BMP_pressure;BME280_temperature;BME280_humidity;BME280_pressure;Samples;Min_cycle;Max_cycle;Signal;HPM_P1;HPM_P2
2022/05/19 00:01:40;;;;;;;2.10;1.58;;;;;;;10.03;79.32;96083.31;5065384;28;20208;-81
2022/05/19 00:04:07;;;;;;;3.75;2.38;;;;;;;9.71;80.06;96060.09;5062424;28;20644;-82
2022/05/19 00:06:34;;;;;;;2.40;2.30;;;;;;;10.12;79.81;96089.97;5063481;28;20210;-79
2022/05/19 00:09:01;;;;;;;6.20;1.88;;;;;;;10.31;77.90;96088.00;5064670;28;20745;-81
2022/05/19 00:11:32;;;;;;;2.00;1.90;;;;;;;10.34;77.26;96090.50;5064292;28;20584;-83
2022/05/19 00:13:59;;;;;;;5.65;2.20;;;;;;;9.96;78.47;96086.81;5063918;28;20925;-79
2022/05/19 00:16:26;;;;;;;2.40;2.20;;;;;;;10.01;78.07;96074.03;5064644;28;21601;-80
2022/05/19 00:18:53;;;;;;;1.83;1.73;;;;;;;9.96;78.76;96083.41;5062886;28;20287;-79
2022/05/19 00:21:20;;;;;;;3.75;2.10;;;;;;;9.84;79.08;96066.69;5064464;28;20244;-80
2022/05/19 00:23:47;;;;;;;1.95;1.85;;;;;;;10.05;78.93;96090.91;5065324;28;20254;-81
2022/05/19 00:26:14;;;;;;;7.35;2.10;;;;;;;10.19;78.16;96079.69;5063280;28;20197;-79
2022/05/19 00:28:42;;;;;;;2.40;2.20;;;;;;;10.26;77.82;96087.22;5064063;28;20553;-79
2022/05/19 00:31:09;;;;;;;2.47;1.80;;;;;;;10.27;77.59;96096.53;5064916;28;20251;-80
2022/05/19 00:33:35;;;;;;;3.85;2.30;;;;;;;10.07;77.56;96094.28;5065587;28;20780;-79
2022/05/19 00:36:08;;;;;;;4.00;1.80;;;;;;;9.94;78.87;96106.28;5062919;28;20258;-78
2022/05/19 00:38:35;;;;;;;13.73;2.38;;;;;;;10.02;78.90;96109.56;5064284;28;20316;-79
2022/05/19 00:41:02;;;;;;;3.25;1.90;;;;;;;10.12;78.20;96113.66;5060793;28;20197;-78
2022/05/19 00:43:30;;;;;;;2.28;1.50;;;;;;;10.15;78.58;96111.06;5066100;28;20220;-81
2022/05/19 00:46:05;;;;;;;7.95;2.80;;;;;;;9.95;78.86;96109.69;5068783;28;20221;-78
2022/05/19 00:48:41;;;;;;;2.10;1.95;;;;;;;9.88;79.23;96114.03;5080174;28;20231;-78
2022/05/19 00:51:10;;;;;;;4.80;2.38;;;;;;;9.34;79.95;96101.19;5063905;28;20202;-79
2022/05/19 00:53:43;;;;;;;5.03;2.40;;;;;;;8.78;82.19;96105.19;5061616;28;20201;-79
2022/05/19 00:56:14;;;;;;;5.50;2.45;;;;;;;8.32;84.23;96103.91;5061248;28;20197;-78
2022/05/19 00:58:47;;;;;;;2.40;2.20;;;;;;;8.14;85.99;96113.34;5063523;28;20240;-77
2022/05/19 01:01:16;;;;;;;4.22;2.10;;;;;;;8.61;85.67;96117.19;5062292;28;20206;-78
2022/05/19 01:03:48;;;;;;;4.13;2.83;;;;;;;8.47;84.82;96114.75;5062187;28;20235;-79
2022/05/19 01:06:19;;;;;;;3.00;2.80;;;;;;;8.85;84.20;96131.31;5058154;28;20201;-79
2022/05/19 01:08:50;;;;;;;2.58;2.38;;;;;;;9.00;82.82;96120.19;5062712;28;21798;-78
2022/05/19 01:11:18;;;;;;;5.95;2.20;;;;;;;8.80;84.09;96143.19;5066054;28;20824;-81
2022/05/19 01:13:45;;;;;;;4.50;2.20;;;;;;;8.80;85.00;96123.75;5062866;28;20209;-81
2022/05/19 01:16:13;;;;;;;8.02;2.08;;;;;;;9.12;83.30;96125.13;5067221;28;20213;-79
2022/05/19 01:18:43;;;;;;;3.60;2.28;;;;;;;9.24;82.16;96124.97;5067982;28;20257;-82
2022/05/19 01:21:12;;;;;;;2.22;1.98;;;;;;;9.68;80.35;96137.13;5069630;28;20234;-81
2022/05/19 01:23:52;;;;;;;2.28;1.77;;;;;;;9.82;78.73;96125.09;5069690;28;20202;-81
2022/05/19 01:26:26;;;;;;;2.70;2.50;;;;;;;9.18;80.61;96136.03;5069224;28;20212;-82
2022/05/19 01:28:56;;;;;;;7.00;2.40;;;;;;;8.47;82.64;96135.03;5069170;28;20193;-82
2022/05/19 01:31:31;;;;;;;5.72;2.50;;;;;;;8.20;84.40;96141.13;5066363;28;20213;-80
2022/05/19 01:33:58;;;;;;;4.50;2.67;;;;;;;8.08;85.33;96128.56;5068315;28;20259;-79
2022/05/19 01:36:25;;;;;;;2.33;2.15;;;;;;;8.14;85.35;96135.28;5066360;28;20209;-80
2022/05/19 01:39:00;;;;;;;2.50;2.30;;;;;;;8.23;85.41;96134.34;5067062;28;20696;-82
2022/05/19 01:41:33;;;;;;;2.30;2.20;;;;;;;8.63;84.42;96137.44;5068532;28;20320;-79
2022/05/19 01:44:18;;;;;;;2.63;2.38;;;;;;;8.90;83.26;96141.44;5066500;28;20266;-83
2022/05/19 01:46:51;;;;;;;2.65;2.08;;;;;;;9.05;82.57;96143.78;5066719;28;20642;-80
2022/05/19 01:49:23;;;;;;;2.03;1.92;;;;;;;9.26;81.89;96148.63;5063784;28;20872;-81
2022/05/19 01:51:55;;;;;;;1.95;1.85;;;;;;;9.12;81.79;96132.75;5066720;28;20194;-82
2022/05/19 01:54:28;;;;;;;3.92;2.72;;;;;;;9.38;80.28;96135.81;5066091;28;20620;-83
2022/05/19 01:57:00;;;;;;;8.50;2.33;;;;;;;9.58;78.83;96129.66;5064867;28;20210;-81
2022/05/19 01:59:35;;;;;;;2.80;1.95;;;;;;;9.80;77.40;96134.44;5064670;28;21568;-80
2022/05/19 02:02:12;;;;;;;1.67;1.58;;;;;;;9.57;78.32;96153.34;5067333;28;20553;-81
2022/05/19 02:04:44;;;;;;;2.17;1.90;;;;;;;8.97;81.80;96155.69;5067980;28;20268;-83
2022/05/19 02:07:15;;;;;;;2.50;2.30;;;;;;;8.82;82.71;96147.41;5065867;28;21002;-80
2022/05/19 02:09:47;;;;;;;3.03;1.90;;;;;;;8.98;81.83;96157.38;5067238;28;20198;-82
2022/05/19 02:12:14;;;;;;;2.03;1.92;;;;;;;9.17;81.55;96156.34;5068096;28;20699;-79
2022/05/19 02:14:46;;;;;;;3.75;1.75;;;;;;;9.02;82.02;96142.13;5068122;28;20197;-80
2022/05/19 02:17:16;;;;;;;2.58;2.25;;;;;;;9.06;81.98;96150.56;5068200;28;20674;-80
2022/05/19 02:19:46;;;;;;;5.65;2.78;;;;;;;8.76;84.07;96149.16;5067109;28;20234;-81
2022/05/19 02:22:23;;;;;;;10.32;2.53;;;;;;;8.38;85.94;96144.41;5065694;28;21436;-83
2022/05/19 02:24:55;;;;;;;4.07;2.22;;;;;;;8.89;84.53;96149.88;5067315;28;20225;-80
2022/05/19 02:27:33;;;;;;;4.07;1.90;;;;;;;8.96;83.32;96142.19;5068211;28;20206;-83
2022/05/19 02:30:07;;;;;;;1.67;1.60;;;;;;;8.95;83.47;96158.25;5067640;28;20904;-83
2022/05/19 02:32:35;;;;;;;2.42;2.20;;;;;;;9.15;81.96;96160.59;5067165;28;20696;-82
2022/05/19 02:35:02;;;;;;;2.13;2.03;;;;;;;9.15;82.38;96158.06;5067454;28;20210;-81
2022/05/19 02:37:29;;;;;;;1.95;1.85;;;;;;;9.35;82.17;96161.22;5066919;28;20209;-81
2022/05/19 02:39:55;;;;;;;3.75;1.95;;;;;;;9.51;81.01;96156.81;5067448;28;20229;-81
2022/05/19 02:42:22;;;;;;;2.22;2.10;;;;;;;9.74;80.47;96161.59;5067133;28;20202;-81
2022/05/19 02:44:49;;;;;;;2.25;2.15;;;;;;;9.77;80.43;96159.03;5064601;28;20205;-86
2022/05/19 02:47:17;;;;;;;6.50;2.50;;;;;;;9.58;81.32;96160.13;5065701;28;20278;-80
2022/05/19 02:49:44;;;;;;;3.50;2.30;;;;;;;9.66;81.00;96153.22;5064721;28;20262;-80
2022/05/19 02:52:11;;;;;;;3.42;2.17;;;;;;;9.86;79.75;96153.84;5064880;28;20209;-83
2022/05/19 02:54:38;;;;;;;3.35;2.33;;;;;;;10.07;78.87;96163.69;5065140;28;20209;-81
2022/05/19 02:57:05;;;;;;;7.70;2.63;;;;;;;9.93;78.79;96154.56;5065288;28;20736;-82
2022/05/19 02:59:32;;;;;;;3.72;2.22;;;;;;;10.15;78.45;96159.31;5065459;28;20235;-81
2022/05/19 03:01:59;;;;;;;3.95;2.53;;;;;;;10.02;79.26;96162.06;5065390;28;20210;-82
2022/05/19 03:04:27;;;;;;;2.85;2.65;;;;;;;9.93;79.31;96147.78;5065695;28;20206;-81
2022/05/19 03:06:54;;;;;;;3.85;2.70;;;;;;;10.06;78.94;96162.00;5064386;28;20597;-80
2022/05/19 03:09:22;;;;;;;3.50;2.20;;;;;;;10.10;78.79;96150.13;5063510;28;20577;-82
2022/05/19 03:11:48;;;;;;;3.22;2.92;;;;;;;9.93;79.40;96163.03;5064701;28;20296;-82
2022/05/19 03:14:15;;;;;;;2.55;2.13;;;;;;;10.05;79.53;96169.66;5064210;28;20208;-84
2022/05/19 03:16:42;;;;;;;7.50;2.47;;;;;;;10.02;79.20;96159.53;5063520;28;20643;-83
2022/05/19 03:19:10;;;;;;;2.20;2.10;;;;;;;10.08;78.65;96162.81;5063649;28;20256;-81
2022/05/19 03:21:38;;;;;;;2.33;2.22;;;;;;;10.08;78.27;96146.75;5063097;28;20232;-81
2022/05/19 03:24:06;;;;;;;3.92;2.30;;;;;;;10.26;77.82;96171.06;5063583;28;20266;-81
2022/05/19 03:26:32;;;;;;;3.30;2.58;;;;;;;10.33;77.40;96152.34;5063563;28;20200;-81
2022/05/19 03:28:59;;;;;;;6.15;2.70;;;;;;;10.37;76.98;96164.97;5062914;28;20221;-81
2022/05/19 03:31:26;;;;;;;4.68;3.80;;;;;;;10.50;76.72;96173.25;5063686;28;20227;-83
2022/05/19 03:33:53;;;;;;;4.47;3.45;;;;;;;10.35;77.05;96176.03;5063756;28;20607;-81
2022/05/19 03:36:20;;;;;;;14.05;9.82;;;;;;;10.49;76.17;96191.91;5065223;28;20201;-82
2022/05/19 03:38:49;;;;;;;3.60;3.05;;;;;;;9.91;77.23;96195.22;5065820;28;20230;-82
2022/05/19 03:41:16;;;;;;;11.05;7.57;;;;;;;9.71;77.37;96148.94;5068457;28;20205;-81
2022/05/19 03:43:43;;;;;;;20.80;9.05;;;;;;;10.09;77.23;96194.16;5080457;28;20198;-82
2022/05/19 03:46:10;;;;;;;5.88;3.70;;;;;;;10.00;76.46;96182.41;5078288;28;20639;-80
2022/05/19 03:48:38;;;;;;;3.92;3.63;;;;;;;9.92;77.22;96203.66;5067645;28;20193;-81
2022/05/19 03:51:09;;;;;;;5.63;3.33;;;;;;;9.86;77.59;96199.53;5067481;28;20224;-80
2022/05/19 03:53:36;;;;;;;3.47;3.22;;;;;;;10.02;76.82;96190.84;5068050;28;20198;-79
2022/05/19 03:56:06;;;;;;;3.47;3.15;;;;;;;10.19;75.38;96201.63;5067307;28;20292;-81
2022/05/19 03:58:32;;;;;;;2.90;2.55;;;;;;;10.43;74.66;96200.44;5066369;28;20213;-83
2022/05/19 04:00:59;;;;;;;5.40;2.90;;;;;;;10.62;74.20;96218.81;5067420;28;20202;-81
2022/05/19 04:03:26;;;;;;;4.93;2.65;;;;;;;10.60;73.24;96212.06;5066901;28;20694;-82
2022/05/19 04:05:53;;;;;;;4.05;2.47;;;;;;;10.65;72.55;96211.13;5067362;28;20240;-80
2022/05/19 04:08:20;;;;;;;3.42;2.90;;;;;;;10.81;72.17;96216.81;5067278;28;20201;-82
2022/05/19 04:10:48;;;;;;;6.50;2.97;;;;;;;10.80;71.88;96210.91;5067171;28;20212;-81
2022/05/19 04:13:16;;;;;;;15.90;3.65;;;;;;;10.84;71.94;96216.78;5066580;28;20213;-81
2022/05/19 04:15:43;;;;;;;3.15;2.85;;;;;;;11.07;71.45;96211.31;5066744;28;20209;-84
2022/05/19 04:18:10;;;;;;;7.10;3.17;;;;;;;11.39;70.34;96229.38;5067104;28;20569;-81
2022/05/19 04:20:37;;;;;;;6.70;2.88;;;;;;;11.65;70.14;96223.78;5067052;28;20240;-82
2022/05/19 04:23:04;;;;;;;22.30;8.82;;;;;;;11.83;69.47;96225.19;5067084;28;20202;-81
2022/05/19 04:25:31;;;;;;;32.67;17.33;;;;;;;11.65;69.43;96210.22;5067500;28;20198;-81
2022/05/19 04:27:59;;;;;;;12.80;9.05;;;;;;;11.34;71.31;96228.63;5066600;28;20590;-81
2022/05/19 04:30:28;;;;;;;5.65;5.13;;;;;;;11.53;70.04;96221.50;5066209;28;20228;-80
2022/05/19 04:32:55;;;;;;;9.10;5.18;;;;;;;11.68;70.61;96223.75;5066798;28;20626;-81
2022/05/19 04:35:23;;;;;;;6.03;5.35;;;;;;;12.14;70.17;96225.38;5066811;28;20636;-82
2022/05/19 04:37:50;;;;;;;8.32;5.13;;;;;;;12.49;68.93;96227.19;5066575;28;20210;-82
2022/05/19 04:40:19;;;;;;;6.03;4.80;;;;;;;12.79;67.33;96241.78;5065881;28;20233;-80
2022/05/19 04:42:45;;;;;;;12.13;6.95;;;;;;;12.81;65.94;96226.44;5065874;28;20262;-81
2022/05/19 04:45:16;;;;;;;21.45;9.20;;;;;;;12.90;66.06;96234.69;5066045;28;20210;-80
2022/05/19 04:47:45;;;;;;;16.50;11.32;;;;;;;12.98;66.68;96238.78;5066424;28;20278;-79
2022/05/19 04:50:13;;;;;;;25.35;10.93;;;;;;;13.24;65.64;96216.03;5066313;28;20210;-82
2022/05/19 04:52:39;;;;;;;12.40;9.02;;;;;;;13.54;64.53;96237.41;5064690;28;20209;-80
2022/05/19 04:55:10;;;;;;;11.32;8.15;;;;;;;13.90;62.88;96248.31;5066152;28;20263;-81
2022/05/19 04:57:37;;;;;;;12.18;8.13;;;;;;;13.95;62.54;96221.75;5066881;28;20213;-81
2022/05/19 05:00:07;;;;;;;9.02;8.15;;;;;;;14.16;62.63;96245.03;5066136;28;20662;-82
2022/05/19 05:02:34;;;;;;;13.07;8.18;;;;;;;14.09;61.85;96223.09;5065843;28;20305;-81
2022/05/19 05:05:03;;;;;;;9.82;7.50;;;;;;;14.34;62.12;96243.69;5065326;28;20204;-81
2022/05/19 05:07:29;;;;;;;10.60;7.20;;;;;;;14.76;61.61;96250.09;5064553;28;20202;-80
2022/05/19 05:09:56;;;;;;;14.07;7.40;;;;;;;15.20;58.95;96242.69;5065320;28;20206;-80
2022/05/19 05:12:23;;;;;;;7.85;7.05;;;;;;;15.62;58.84;96255.81;5065492;28;20206;-79
2022/05/19 05:14:50;;;;;;;7.18;5.80;;;;;;;16.07;56.60;96250.81;5065825;28;20627;-80
2022/05/19 05:17:17;;;;;;;7.88;6.97;;;;;;;16.18;55.16;96243.56;5065699;28;20205;-81
2022/05/19 05:19:44;;;;;;;13.32;6.43;;;;;;;16.66;54.60;96250.34;5065148;28;20926;-82
2022/05/19 05:22:12;;;;;;;7.20;6.20;;;;;;;18.16;51.10;96235.50;5064479;28;20202;-83
2022/05/19 05:24:39;;;;;;;9.27;7.05;;;;;;;19.86;46.41;96229.03;5065599;28;20194;-80
2022/05/19 05:27:06;;;;;;;8.13;6.53;;;;;;;21.35;42.99;96235.59;5066161;28;20214;-81
2022/05/19 05:29:33;;;;;;;9.98;6.57;;;;;;;23.64;38.00;96238.63;5065506;28;20206;-83
2022/05/19 05:32:00;;;;;;;7.15;5.82;;;;;;;24.61;36.12;96222.47;5064737;28;20325;-81
2022/05/19 05:34:27;;;;;;;5.03;4.63;;;;;;;26.12;33.62;96229.53;5065449;28;20206;-82
2022/05/19 05:36:54;;;;;;;9.23;5.25;;;;;;;27.55;31.31;96239.81;5066196;28;20755;-81
2022/05/19 05:39:22;;;;;;;8.27;5.05;;;;;;;28.25;29.75;96223.47;5065997;28;20747;-81
2022/05/19 05:41:49;;;;;;;13.27;5.65;;;;;;;28.68;28.75;96233.69;5065800;28;20287;-82
2022/05/19 05:44:15;;;;;;;7.90;5.45;;;;;;;28.96;28.15;96237.31;5064754;28;20205;-83
2022/05/19 05:46:44;;;;;;;8.30;5.22;;;;;;;29.59;27.45;96231.75;5065498;28;20622;-82
2022/05/19 05:49:11;;;;;;;8.55;4.25;;;;;;;28.87;28.06;96243.41;5065161;28;20869;-82
2022/05/19 05:51:38;;;;;;;5.28;4.88;;;;;;;27.99;29.31;96245.75;5065609;28;20282;-81
2022/05/19 05:54:05;;;;;;;4.45;4.05;;;;;;;28.31;28.12;96236.03;5066179;28;20214;-83
2022/05/19 05:56:33;;;;;;;3.70;3.40;;;;;;;26.62;30.38;96247.31;5065118;28;20267;-83
2022/05/19 05:59:00;;;;;;;6.75;3.90;;;;;;;28.30;28.85;96239.59;5069193;28;20205;-81
2022/05/19 06:01:27;;;;;;;12.30;4.28;;;;;;;26.80;31.03;96250.25;5069307;28;20248;-82
2022/05/19 06:03:54;;;;;;;3.67;3.38;;;;;;;27.34;29.56;96234.56;5067965;28;20304;-82
2022/05/19 06:06:21;;;;;;;10.70;3.95;;;;;;;26.53;30.78;96241.97;5069398;28;20613;-83
2022/05/19 06:08:48;;;;;;;8.15;3.95;;;;;;;26.63;31.32;96240.31;5069090;28;20206;-82
2022/05/19 06:11:15;;;;;;;4.07;3.80;;;;;;;26.63;31.27;96259.41;5069231;28;20214;-85
2022/05/19 06:13:43;;;;;;;2.97;2.78;;;;;;;27.13;30.38;96218.06;5068086;28;20197;-83
2022/05/19 06:16:10;;;;;;;3.92;3.63;;;;;;;27.10;30.30;96240.00;5069487;28;20206;-83
2022/05/19 06:18:37;;;;;;;6.43;3.28;;;;;;;26.64;30.87;96245.41;5069012;28;20205;-84
2022/05/19 06:21:05;;;;;;;6.28;3.53;;;;;;;26.41;31.62;96255.03;5068551;28;20237;-82
2022/05/19 06:23:32;;;;;;;3.28;3.03;;;;;;;26.66;31.35;96255.72;5069097;28;20209;-85
2022/05/19 06:26:00;;;;;;;3.80;3.50;;;;;;;26.81;30.91;96251.91;5069344;28;20917;-84
2022/05/19 06:28:27;;;;;;;4.07;3.78;;;;;;;25.97;31.83;96250.63;5069443;28;20210;-82
2022/05/19 06:30:55;;;;;;;5.47;4.97;;;;;;;26.29;31.59;96255.13;5069366;28;20872;-84
2022/05/19 06:33:22;;;;;;;6.28;4.65;;;;;;;26.22;31.77;96244.34;5069018;28;20703;-83
2022/05/19 06:35:49;;;;;;;4.05;3.72;;;;;;;26.14;31.82;96245.88;5068883;28;21463;-84
2022/05/19 06:38:16;;;;;;;6.25;4.55;;;;;;;26.01;32.30;96251.19;5069515;28;20336;-83
2022/05/19 06:40:43;;;;;;;8.32;3.90;;;;;;;24.84;34.26;96242.44;5068915;28;20286;-84
2022/05/19 06:43:13;;;;;;;4.00;3.67;;;;;;;22.96;38.01;96243.94;5083745;28;20208;-83
2022/05/19 06:45:41;;;;;;;8.15;4.40;;;;;;;23.44;37.67;96257.25;5090450;28;20704;-82
2022/05/19 06:48:09;;;;;;;6.93;3.85;;;;;;;23.34;37.58;96258.78;5068795;28;20286;-83
2022/05/19 06:50:36;;;;;;;7.53;3.92;;;;;;;23.63;37.05;96244.75;5068729;28;20206;-84
2022/05/19 06:53:03;;;;;;;4.97;3.83;;;;;;;23.71;37.04;96255.47;5068060;28;20204;-81
2022/05/19 06:55:32;;;;;;;7.90;4.13;;;;;;;23.84;35.62;96244.25;5068505;28;20206;-81
2022/05/19 06:58:00;;;;;;;5.20;3.90;;;;;;;23.61;36.76;96249.22;5068179;28;20202;-83
2022/05/19 07:00:29;;;;;;;6.82;5.10;;;;;;;23.30;36.97;96246.94;5068371;28;20245;-83
2022/05/19 07:02:57;;;;;;;5.40;4.70;;;;;;;23.44;37.25;96262.44;5068462;28;20201;-84
2022/05/19 07:05:28;;;;;;;9.15;4.18;;;;;;;23.06;37.39;96260.56;5068272;28;20193;-81
2022/05/19 07:07:55;;;;;;;6.63;4.00;;;;;;;22.89;37.74;96260.81;5068485;28;20624;-83
2022/05/19 07:10:24;;;;;;;4.78;4.30;;;;;;;22.44;38.45;96243.75;5067602;28;20278;-81
2022/05/19 07:12:52;;;;;;;5.32;3.10;;;;;;;21.40;40.54;96269.78;5067796;28;20295;-80
2022/05/19 07:15:20;;;;;;;4.53;3.15;;;;;;;21.06;41.36;96250.13;5067673;28;20214;-81
2022/05/19 07:17:47;;;;;;;3.85;3.55;;;;;;;20.80;41.32;96261.06;5068023;28;20243;-81
2022/05/19 07:23:03;;;;;;;9.77;2.60;;;;;;;21.24;41.28;96259.50;5060375;28;20200;-82
2022/05/19 07:25:30;;;;;;;2.70;2.58;;;;;;;20.96;40.21;96255.00;5067211;28;20727;-81
2022/05/19 07:27:57;;;;;;;5.82;3.00;;;;;;;20.37;42.03;96256.50;5068080;28;20212;-81
2022/05/19 07:30:24;;;;;;;5.97;2.70;;;;;;;20.68;41.10;96253.09;5067971;28;20289;-83
2022/05/19 07:32:53;;;;;;;4.18;3.25;;;;;;;20.68;42.16;96218.69;5067028;28;20202;-81
2022/05/19 07:35:20;;;;;;;3.90;3.60;;;;;;;21.13;42.51;96260.97;5067432;28;20294;-81
2022/05/19 07:37:46;;;;;;;3.97;3.53;;;;;;;21.19;41.53;96245.13;5067922;28;20198;-82
2022/05/19 07:40:16;;;;;;;4.60;3.45;;;;;;;20.66;41.16;96246.34;5067208;28;20228;-81
2022/05/19 07:42:43;;;;;;;5.45;2.75;;;;;;;20.77;41.30;96248.34;5067772;28;20202;-80
2022/05/19 07:45:12;;;;;;;8.75;3.10;;;;;;;20.92;40.30;96250.91;5067284;28;20205;-80
2022/05/19 07:47:39;;;;;;;3.15;2.67;;;;;;;20.77;39.70;96259.53;5067768;28;20213;-83
2022/05/19 07:50:09;;;;;;;3.25;2.53;;;;;;;20.68;40.42;96235.00;5066205;28;21227;-81
2022/05/19 07:52:36;;;;;;;4.22;2.83;;;;;;;20.90;39.98;96244.16;5066521;28;20206;-83
2022/05/19 07:55:04;;;;;;;3.22;2.92;;;;;;;20.70;39.65;96233.19;5067619;28;20637;-81
2022/05/19 07:57:34;;;;;;;3.60;3.30;;;;;;;20.79;40.02;96228.44;5066547;28;20206;-85
2022/05/19 08:00:15;;;;;;;3.47;3.17;;;;;;;20.90;40.18;96255.34;5066191;28;20237;-81
2022/05/19 08:02:44;;;;;;;3.63;3.33;;;;;;;20.69;40.11;96241.84;5066342;28;20270;-80
2022/05/19 08:05:11;;;;;;;7.55;3.67;;;;;;;20.76;40.11;96246.69;5067015;28;20205;-80
2022/05/19 08:07:39;;;;;;;2.80;2.60;;;;;;;20.38;38.98;96242.66;5067030;28;20672;-79
2022/05/19 08:10:25;;;;;;;5.00;3.45;;;;;;;20.59;38.75;96250.16;5060060;28;20209;-79
2022/05/19 08:15:46;;;;;;;6.85;3.55;;;;;;;20.76;38.46;96246.69;5067370;28;20212;-80
2022/05/19 08:18:15;;;;;;;6.93;3.20;;;;;;;21.05;36.83;96254.47;5066269;28;20204;-81
2022/05/19 08:20:44;;;;;;;14.52;7.20;;;;;;;20.78;37.89;96240.53;5065146;28;20425;-80
2022/05/19 08:23:16;;;;;;;11.85;4.80;;;;;;;20.91;37.11;96230.31;5066074;28;20204;-79
2022/05/19 08:25:44;;;;;;;6.70;3.40;;;;;;;21.20;35.93;96239.03;5066234;28;20217;-80
2022/05/19 08:28:14;;;;;;;7.00;2.47;;;;;;;20.79;38.36;96241.34;5065626;28;20292;-79
2022/05/19 08:30:43;;;;;;;6.50;3.42;;;;;;;20.76;37.26;96237.19;5066251;28;20667;-81
2022/05/19 08:33:10;;;;;;;4.90;2.63;;;;;;;20.75;37.80;96245.03;5066582;28;20212;-79
2022/05/19 08:35:37;;;;;;;2.50;2.25;;;;;;;20.68;35.54;96239.34;5066347;28;21531;-78
2022/05/19 08:38:04;;;;;;;2.33;2.13;;;;;;;21.01;34.48;96239.25;5065170;28;20197;-80
2022/05/19 08:40:37;;;;;;;5.55;2.13;;;;;;;21.04;35.15;96232.13;5066347;28;20233;-79
2022/05/19 08:43:03;;;;;;;2.55;2.05;;;;;;;21.03;36.09;96235.63;5066518;28;20205;-80
2022/05/19 08:45:36;;;;;;;3.63;2.50;;;;;;;21.12;33.86;96236.03;5066557;28;20213;-78
2022/05/19 08:48:05;;;;;;;1.90;1.80;;;;;;;21.25;33.25;96237.06;5066237;28;20228;-79
2022/05/19 08:50:41;;;;;;;1.63;1.50;;;;;;;20.83;33.58;96238.50;5064831;28;20633;-78
2022/05/19 08:53:11;;;;;;;1.85;1.30;;;;;;;20.55;32.98;96225.41;5066069;28;20692;-77
2022/05/19 08:55:40;;;;;;;2.92;1.48;;;;;;;20.58;32.55;96233.84;5066205;28;20221;-79
2022/05/19 08:58:20;;;;;;;1.85;1.15;;;;;;;20.80;31.66;96212.81;5059297;28;20887;-78
2022/05/19 09:00:52;;;;;;;5.63;1.33;;;;;;;20.66;33.01;96210.19;5065619;28;20286;-78
2022/05/19 09:03:25;;;;;;;1.52;1.42;;;;;;;20.35;32.15;96221.31;5066542;28;20206;-80
2022/05/19 09:06:23;;;;;;;1.88;1.65;;;;;;;20.40;32.62;96223.69;5066654;28;20817;-79
2022/05/19 09:09:03;;;;;;;1.15;1.15;;;;;;;20.26;32.17;96196.84;5065847;28;20205;-81
2022/05/19 09:11:39;;;;;;;2.15;1.27;;;;;;;20.38;31.55;96214.25;5066506;28;20210;-80
2022/05/19 09:14:17;;;;;;;9.20;1.63;;;;;;;20.54;32.06;96195.38;5066095;28;20193;-80
2022/05/19 09:16:46;;;;;;;3.50;1.52;;;;;;;20.96;33.05;96200.72;5066368;28;20262;-80
2022/05/19 09:19:18;;;;;;;1.25;1.15;;;;;;;21.24;31.06;96188.84;5066273;28;20210;-80
2022/05/19 09:21:47;;;;;;;1.30;1.20;;;;;;;21.22;30.63;96182.94;5064465;28;20712;-79
2022/05/19 09:24:14;;;;;;;1.58;1.48;;;;;;;21.06;30.96;96195.84;5065335;28;20579;-80
2022/05/19 09:26:47;;;;;;;1.95;1.30;;;;;;;20.86;30.71;96199.56;5063230;28;20206;-80
2022/05/19 09:29:18;;;;;;;1.90;1.80;;;;;;;20.92;30.82;96188.91;5064386;28;20198;-79
2022/05/19 09:31:50;;;;;;;1.85;1.30;;;;;;;21.28;31.11;96187.75;5066640;28;20230;-79
2022/05/19 09:34:18;;;;;;;2.53;2.33;;;;;;;21.53;30.88;96187.16;5068478;28;20308;-75
2022/05/19 09:37:01;;;;;;;4.47;3.05;;;;;;;21.51;31.89;96184.66;5066130;28;20201;-75
2022/05/19 09:39:33;;;;;;;6.88;2.47;;;;;;;21.20;31.58;96148.53;5069659;28;20206;-75
2022/05/19 09:42:06;;;;;;;2.10;1.90;;;;;;;20.91;31.49;96158.81;5075702;28;20237;-75
2022/05/19 09:44:35;;;;;;;4.32;2.70;;;;;;;21.22;32.88;96172.59;5070899;28;20198;-74
2022/05/19 09:47:16;;;;;;;5.05;2.47;;;;;;;21.61;31.70;96174.56;5068601;28;20197;-75
2022/05/19 09:49:52;;;;;;;2.33;2.10;;;;;;;21.76;31.18;96178.03;5069377;28;20213;-74
2022/05/19 09:52:23;;;;;;;2.47;2.28;;;;;;;21.65;30.97;96176.91;5068709;28;20200;-74
2022/05/19 09:54:54;;;;;;;2.90;1.48;;;;;;;21.74;31.92;96170.34;5068979;28;20755;-75
2022/05/19 09:57:27;;;;;;;7.45;2.45;;;;;;;21.58;30.37;96164.41;5068205;28;20227;-74
2022/05/19 09:59:59;;;;;;;3.58;2.00;;;;;;;21.28;32.36;96167.88;5067351;28;20250;-76
2022/05/19 10:02:33;;;;;;;2.88;1.88;;;;;;;21.19;32.20;96159.81;5068498;28;20222;-76
2022/05/19 10:05:02;;;;;;;4.10;1.75;;;;;;;20.31;31.80;96153.50;5068197;28;20258;-75
2022/05/19 10:07:36;;;;;;;2.72;2.10;;;;;;;20.20;32.37;96150.69;5066589;28;20291;-74
2022/05/19 10:10:04;;;;;;;2.33;2.13;;;;;;;20.66;33.59;96158.53;5067610;28;20236;-74
2022/05/19 10:12:33;;;;;;;2.33;2.20;;;;;;;21.21;33.40;96155.41;5068422;28;21362;-74
2022/05/19 10:15:02;;;;;;;2.30;2.10;;;;;;;21.33;32.57;96150.34;5067732;28;20205;-74
2022/05/19 10:17:46;;;;;;;3.75;1.90;;;;;;;21.37;33.50;96146.66;5067373;28;20217;-74
2022/05/19 10:20:20;;;;;;;3.45;1.88;;;;;;;21.54;32.98;96148.22;5066594;28;20282;-75
2022/05/19 10:23:01;;;;;;;6.60;2.45;;;;;;;21.58;32.11;96138.53;5066579;28;20312;-75
2022/05/19 10:25:45;;;;;;;2.58;2.15;;;;;;;21.65;31.08;96139.84;5068193;28;20203;-75
2022/05/19 10:31:22;;;;;;;3.75;1.92;;;;;;;21.78;30.66;96134.78;5067827;28;21373;-75
2022/05/19 10:34:27;;;;;;;2.42;1.65;;;;;;;21.70;30.75;96138.66;5068000;28;20205;-75
2022/05/19 10:37:00;;;;;;;3.03;1.90;;;;;;;21.65;29.77;96134.66;5089718;28;20280;-75
2022/05/19 10:39:47;;;;;;;2.03;1.92;;;;;;;21.71;32.40;96135.13;5088773;28;20233;-75
2022/05/19 10:42:25;;;;;;;2.60;1.40;;;;;;;21.66;29.23;96132.00;5090887;28;20230;-75
2022/05/19 10:45:03;;;;;;;4.13;2.03;;;;;;;21.95;30.18;96121.63;5090129;28;20205;-75
2022/05/19 10:47:39;;;;;;;7.97;3.15;;;;;;;21.93;30.79;96123.47;5090263;28;20280;-74
2022/05/19 10:50:21;;;;;;;4.75;4.35;;;;;;;22.15;30.85;96108.31;5090238;28;20246;-80
2022/05/19 10:53:11;;;;;;;6.68;4.30;;;;;;;22.03;30.89;96111.63;5087688;28;20251;-79
2022/05/19 10:55:47;;;;;;;3.10;1.70;;;;;;;21.42;31.85;96112.78;5089035;28;20201;-81
2022/05/19 10:58:37;;;;;;;1.73;1.63;;;;;;;21.75;31.98;96111.66;5089076;28;20200;-80
2022/05/19 11:01:18;;;;;;;4.72;2.40;;;;;;;21.77;32.04;96108.06;5087822;28;20257;-80
2022/05/19 11:04:11;;;;;;;2.33;2.13;;;;;;;21.57;31.16;96111.84;5086686;28;20592;-80
2022/05/19 11:06:55;;;;;;;2.90;2.70;;;;;;;21.83;30.63;96112.84;5083285;28;20185;-80
2022/05/19 11:09:34;;;;;;;2.13;2.00;;;;;;;21.50;31.86;96107.16;5088982;28;20190;-80
2022/05/19 11:12:11;;;;;;;3.97;1.70;;;;;;;21.52;30.77;96113.91;5088543;28;20193;-80
2022/05/19 11:15:03;;;;;;;1.60;1.50;;;;;;;21.93;30.61;96103.59;5089551;28;20691;-80
2022/05/19 11:17:42;;;;;;;2.50;2.30;;;;;;;21.99;30.40;96104.97;5081198;28;20680;-79
2022/05/19 11:20:13;;;;;;;2.10;1.52;;;;;;;21.68;30.31;96083.56;5090332;28;20225;-79
2022/05/19 11:22:42;;;;;;;5.75;3.08;;;;;;;21.73;31.89;96086.72;5092354;28;20578;-82
2022/05/19 11:28:04;;;;;;;7.82;7.18;;;;;;;22.10;31.57;96081.88;5092317;28;20197;-79
2022/05/19 11:30:34;;;;;;;8.07;6.30;;;;;;;21.91;31.14;96040.75;5091849;28;20704;-80
2022/05/19 11:33:06;;;;;;;4.07;3.63;;;;;;;22.12;29.86;96072.25;5091982;28;20771;-79
2022/05/19 11:35:39;;;;;;;2.20;2.00;;;;;;;22.21;29.85;96065.66;5092532;28;20233;-81
2022/05/19 11:38:17;;;;;;;1.65;1.55;;;;;;;21.48;30.05;96052.94;5092210;28;20193;-81
2022/05/19 11:40:47;;;;;;;1.73;1.38;;;;;;;21.27;31.79;96062.81;5091966;28;20251;-81
2022/05/19 11:43:22;;;;;;;5.57;1.50;;;;;;;21.56;29.61;96057.59;5091836;28;20638;-81
2022/05/19 11:45:53;;;;;;;1.55;1.55;;;;;;;21.92;29.51;96047.59;5091942;28;20193;-79
2022/05/19 11:57:08;;;;;;;6.72;2.67;;;;;;;22.29;29.66;96035.75;5092249;28;20196;-79
2022/05/19 11:59:37;;;;;;;2.45;1.90;;;;;;;22.37;28.59;96030.91;5091725;28;20684;-79
2022/05/19 12:02:05;;;;;;;1.92;1.75;;;;;;;22.62;28.30;96026.72;5091598;28;20290;-81
2022/05/19 12:04:37;;;;;;;2.13;1.92;;;;;;;22.56;30.46;96019.34;5091764;28;20198;-80
2022/05/19 12:07:13;;;;;;;4.30;2.72;;;;;;;22.86;29.54;95999.19;5091732;28;20201;-76
2022/05/19 12:09:46;;;;;;;2.10;1.90;;;;;;;22.95;28.35;96006.38;5092034;28;20198;-82